sim
Sign-in with your pilot id or email,
or register
Callsign
Passwort

Schedule Details

Flight Number: OEO4726
Departure: Dusseldorf International Airport (EDDL) at 05:20
Arrival: Gothenburg Landvetter Airport (ESGG) at 07:00

Weather Information
Getting current METAR information for EDDL 251350Z 19008KT 9999 -RA FEW020 SCT030 12/10 Q1002 NOSIG
Getting current METAR information for ESGG 251350Z 20013KT 9999 -RA SCT005 BKN008 11/10 Q0998

Schedule Frequency

Route Map